createdAt,value
2019-01-20T00:01:30.177Z,11.13
2019-01-20T00:03:59.297Z,11.43
2019-01-20T00:06:28.410Z,11.90
2019-01-20T00:08:57.527Z,11.50
2019-01-20T00:11:26.711Z,10.97
2019-01-20T00:13:55.822Z,12.30
2019-01-20T00:16:24.950Z,11.30
2019-01-20T00:18:54.079Z,11.93
2019-01-20T00:21:23.181Z,12.37
2019-01-20T00:23:52.284Z,14.33
2019-01-20T00:26:21.395Z,32.17
2019-01-20T00:28:50.503Z,21.23
2019-01-20T00:31:19.642Z,18.30
2019-01-20T00:33:48.759Z,16.17
2019-01-20T00:36:17.883Z,13.40
2019-01-20T00:38:47.004Z,11.80
2019-01-20T00:41:16.112Z,12.53
2019-01-20T00:43:46.287Z,12.23
2019-01-20T00:46:15.408Z,12.33
2019-01-20T00:48:44.516Z,11.47
2019-01-20T00:51:13.627Z,11.10
2019-01-20T00:53:42.749Z,10.83
2019-01-20T00:56:11.853Z,10.77
2019-01-20T00:58:40.963Z,10.47
2019-01-20T01:01:10.142Z,11.40
2019-01-20T01:03:39.255Z,11.90
2019-01-20T01:06:08.362Z,12.33
2019-01-20T01:08:38.451Z,12.30
2019-01-20T01:11:07.560Z,10.70
2019-01-20T01:13:36.844Z,12.53
2019-01-20T01:16:06.015Z,12.10
2019-01-20T01:18:35.145Z,10.40
2019-01-20T01:21:04.240Z,11.40
2019-01-20T01:23:33.346Z,12.47
2019-01-20T01:26:02.455Z,14.90
2019-01-20T01:28:31.571Z,15.23
2019-01-20T01:31:00.670Z,12.57
2019-01-20T01:33:29.801Z,11.97
2019-01-20T01:36:18.345Z,14.03
2019-01-20T01:38:47.461Z,13.60
2019-01-20T01:41:16.576Z,13.83
2019-01-20T01:43:45.690Z,12.90
2019-01-20T01:46:14.795Z,13.97
2019-01-20T01:48:43.914Z,13.73
2019-01-20T01:51:13.051Z,13.90
2019-01-20T01:53:42.170Z,12.63
2019-01-20T01:56:11.270Z,13.73
2019-01-20T01:58:40.403Z,12.43
2019-01-20T02:01:09.498Z,12.73
2019-01-20T02:03:38.615Z,12.60
2019-01-20T02:06:07.718Z,13.27
2019-01-20T02:08:36.834Z,14.93
2019-01-20T02:11:05.934Z,12.90
2019-01-20T02:13:35.047Z,13.13
2019-01-20T02:16:04.180Z,11.73
2019-01-20T02:18:33.366Z,12.70
2019-01-20T02:21:02.469Z,13.07
2019-01-20T02:23:31.597Z,12.37
2019-01-20T02:26:00.711Z,12.67
2019-01-20T02:28:29.924Z,13.27
2019-01-20T02:30:59.097Z,12.60
2019-01-20T02:33:28.246Z,12.77
2019-01-20T02:35:57.347Z,13.07
2019-01-20T02:38:26.475Z,13.27
2019-01-20T02:40:55.603Z,13.03
2019-01-20T02:43:24.755Z,12.80
2019-01-20T02:45:53.866Z,12.70
2019-01-20T02:48:22.970Z,12.23
2019-01-20T02:50:52.108Z,11.97
2019-01-20T02:53:21.210Z,12.63
2019-01-20T02:55:50.334Z,12.17
2019-01-20T02:58:19.439Z,12.40
2019-01-20T03:00:48.548Z,12.43
2019-01-20T03:03:17.654Z,12.53
2019-01-20T03:05:46.763Z,11.97
2019-01-20T03:08:15.880Z,12.50
2019-01-20T03:10:44.990Z,12.43
2019-01-20T03:13:14.109Z,11.20
2019-01-20T03:15:43.231Z,12.17
2019-01-20T03:18:12.334Z,12.20
2019-01-20T03:20:41.439Z,13.00
2019-01-20T03:23:10.550Z,12.17
2019-01-20T03:25:39.682Z,12.77
2019-01-20T03:28:08.788Z,12.67
2019-01-20T03:30:37.912Z,11.67
2019-01-20T03:33:07.016Z,13.43
2019-01-20T03:35:36.156Z,13.37
2019-01-20T03:38:05.254Z,11.93
2019-01-20T03:40:34.382Z,11.70
2019-01-20T03:43:03.495Z,11.73
2019-01-20T03:45:32.611Z,11.33
2019-01-20T03:48:01.741Z,11.60
2019-01-20T03:50:30.867Z,11.30
2019-01-20T03:52:59.961Z,12.77
2019-01-20T03:55:29.091Z,11.40
2019-01-20T03:57:58.200Z,11.77
2019-01-20T04:00:27.331Z,12.13
2019-01-20T04:02:58.068Z,10.27
2019-01-20T04:05:27.191Z,11.47
2019-01-20T04:07:56.315Z,11.40
2019-01-20T04:10:25.424Z,10.93
2019-01-20T04:12:54.531Z,11.30
2019-01-20T04:15:23.648Z,10.87
2019-01-20T04:17:52.752Z,10.50
2019-01-20T04:20:21.867Z,11.13
2019-01-20T04:22:51.061Z,11.57
2019-01-20T04:25:20.555Z,11.10
2019-01-20T04:27:50.635Z,11.50
2019-01-20T04:30:20.420Z,12.00
2019-01-20T04:32:49.604Z,11.43
2019-01-20T04:35:18.806Z,12.03
2019-01-20T04:37:47.924Z,11.37
2019-01-20T04:40:18.884Z,11.67
2019-01-20T04:42:47.996Z,12.57
2019-01-20T04:45:17.116Z,11.73
2019-01-20T04:47:46.244Z,12.20
2019-01-20T04:50:20.124Z,12.50
2019-01-20T04:52:49.249Z,12.03
2019-01-20T04:55:18.367Z,11.43
2019-01-20T04:57:49.124Z,11.60
2019-01-20T05:00:23.177Z,12.00
2019-01-20T05:02:52.278Z,11.37
2019-01-20T05:05:21.465Z,11.13
2019-01-20T05:07:50.582Z,10.83
2019-01-20T05:10:19.691Z,11.23
2019-01-20T05:12:48.810Z,11.50
2019-01-20T05:15:20.408Z,10.97
2019-01-20T05:17:49.528Z,12.03
2019-01-20T05:20:18.726Z,11.97
2019-01-20T05:22:47.848Z,12.43
2019-01-20T05:25:17.297Z,11.73
2019-01-20T05:27:46.432Z,11.20
2019-01-20T05:30:20.778Z,11.73
2019-01-20T05:32:49.898Z,11.27
2019-01-20T05:35:19.024Z,12.10
2019-01-20T05:37:48.129Z,11.47
2019-01-20T05:40:18.879Z,10.83
2019-01-20T05:42:48.000Z,11.30
2019-01-20T05:45:19.056Z,11.27
2019-01-20T05:47:48.190Z,12.10
2019-01-20T05:50:17.362Z,11.47
2019-01-20T05:52:46.482Z,11.53
2019-01-20T05:55:15.775Z,12.00
2019-01-20T05:57:44.894Z,12.40
2019-01-20T06:00:22.639Z,11.53
2019-01-20T06:02:51.762Z,10.77
2019-01-20T06:05:20.861Z,10.93
2019-01-20T06:07:49.999Z,11.57
2019-01-20T06:10:19.123Z,12.07
2019-01-20T06:12:54.011Z,12.53
2019-01-20T06:15:20.893Z,10.93
2019-01-20T06:17:50.006Z,11.67
2019-01-20T06:20:19.123Z,11.40
2019-01-20T06:22:48.255Z,11.03
2019-01-20T06:25:17.363Z,11.50
2019-01-20T06:27:46.478Z,11.30
2019-01-20T06:30:21.936Z,11.40
2019-01-20T06:32:51.040Z,10.87
2019-01-20T06:35:20.165Z,12.17
2019-01-20T06:37:49.278Z,11.70
2019-01-20T06:40:18.395Z,10.53
2019-01-20T06:42:47.500Z,11.47
2019-01-20T06:45:16.650Z,11.40
2019-01-20T06:47:45.766Z,11.70
2019-01-20T06:50:19.918Z,11.23
2019-01-20T06:52:49.027Z,10.90
2019-01-20T06:55:18.183Z,11.63
2019-01-20T06:57:47.309Z,11.17
2019-01-20T07:00:21.786Z,11.27
2019-01-20T07:02:51.862Z,11.80
2019-01-20T07:05:20.985Z,10.33
2019-01-20T07:07:50.184Z,11.13
2019-01-20T07:10:19.463Z,10.87
2019-01-20T07:12:48.563Z,11.23
2019-01-20T07:15:19.429Z,10.77
2019-01-20T07:17:48.552Z,11.70
2019-01-20T07:20:17.647Z,12.17
2019-01-20T07:22:46.807Z,11.77
2019-01-20T07:25:15.923Z,13.07
2019-01-20T07:27:45.030Z,12.00
2019-01-20T07:30:18.612Z,13.83
2019-01-20T07:32:47.714Z,13.70
2019-01-20T07:35:17.172Z,14.33
2019-01-20T07:37:46.274Z,15.17
2019-01-20T07:40:17.816Z,17.17
2019-01-20T07:42:46.939Z,17.70
2019-01-20T07:45:17.104Z,18.10
2019-01-20T07:47:46.217Z,15.00
2019-01-20T07:50:23.617Z,14.10
2019-01-20T07:52:52.717Z,14.17
2019-01-20T07:55:21.859Z,14.63
2019-01-20T07:57:50.961Z,14.93
2019-01-20T08:00:23.349Z,14.43
2019-01-20T08:02:53.636Z,15.47
2019-01-20T08:05:22.739Z,15.93
2019-01-20T08:07:51.848Z,15.00
2019-01-20T08:10:26.056Z,13.70
2019-01-20T08:12:55.223Z,12.80
2019-01-20T08:15:24.343Z,14.43
2019-01-20T08:17:53.455Z,13.33
2019-01-20T08:20:24.007Z,14.23
2019-01-20T08:22:53.106Z,14.13
2019-01-20T08:25:22.312Z,14.07
2019-01-20T08:27:51.413Z,13.03
2019-01-20T08:30:22.601Z,14.57
2019-01-20T08:32:51.708Z,13.27
2019-01-20T08:35:20.829Z,14.23
2019-01-20T08:37:49.945Z,14.00
2019-01-20T08:40:26.897Z,14.80
2019-01-20T08:42:56.002Z,14.87
2019-01-20T08:45:30.824Z,14.87
2019-01-20T08:48:03.215Z,13.87
2019-01-20T08:50:32.377Z,15.30
2019-01-20T08:53:01.666Z,14.77
2019-01-20T08:55:30.775Z,14.60
2019-01-20T08:57:59.875Z,15.30
2019-01-20T09:00:29.007Z,14.73
2019-01-20T09:02:58.115Z,13.40
2019-01-20T09:05:27.232Z,14.77
2019-01-20T09:07:56.348Z,15.10
2019-01-20T09:10:25.835Z,15.77
2019-01-20T09:12:56.106Z,15.57
2019-01-20T09:15:25.292Z,15.20
2019-01-20T09:17:54.392Z,16.17
2019-01-20T09:20:23.499Z,15.43
2019-01-20T09:22:52.616Z,15.10
2019-01-20T09:25:21.727Z,17.47
2019-01-20T09:27:50.846Z,15.60
2019-01-20T09:30:23.809Z,13.80
2019-01-20T09:32:52.922Z,15.07
2019-01-20T09:35:22.023Z,15.47
2019-01-20T09:37:51.142Z,15.10
2019-01-20T09:40:20.255Z,13.77
2019-01-20T09:42:49.363Z,15.60
2019-01-20T09:45:23.461Z,12.93
2019-01-20T09:47:52.632Z,13.57
2019-01-20T09:50:21.743Z,13.10
2019-01-20T09:52:50.865Z,12.40
2019-01-20T09:55:19.979Z,12.70
2019-01-20T09:57:49.134Z,11.40
2019-01-20T10:00:24.066Z,12.27
2019-01-20T10:02:53.175Z,12.30
2019-01-20T10:05:22.274Z,11.97
2019-01-20T10:07:51.386Z,11.97
2019-01-20T10:10:20.482Z,11.17
2019-01-20T10:12:49.598Z,11.77
2019-01-20T10:15:18.717Z,11.83
2019-01-20T10:17:47.827Z,12.10
2019-01-20T10:20:19.727Z,12.07
2019-01-20T10:22:48.843Z,11.63
2019-01-20T10:25:17.960Z,11.63
2019-01-20T10:27:47.075Z,11.60
2019-01-20T10:30:24.470Z,11.90
2019-01-20T10:32:53.600Z,11.60
2019-01-20T10:35:30.013Z,11.50
2019-01-20T10:38:00.762Z,12.23
2019-01-20T10:40:29.880Z,12.70
2019-01-20T10:42:58.992Z,12.03
2019-01-20T10:45:28.091Z,11.87
2019-01-20T10:47:57.231Z,12.50
2019-01-20T10:50:26.332Z,12.50
2019-01-20T10:52:55.442Z,12.60
2019-01-20T10:55:24.543Z,12.13
2019-01-20T10:57:53.651Z,11.30
2019-01-20T11:00:31.427Z,11.70
2019-01-20T11:03:01.578Z,11.30
2019-01-20T11:05:32.683Z,11.00
2019-01-20T11:08:01.599Z,11.50
2019-01-20T11:10:30.700Z,11.63
2019-01-20T11:12:59.874Z,12.10
2019-01-20T11:15:29.060Z,11.57
2019-01-20T11:17:58.177Z,14.17
2019-01-20T11:20:27.279Z,13.70
2019-01-20T11:22:56.403Z,14.03
2019-01-20T11:25:28.740Z,14.87
2019-01-20T11:27:57.885Z,14.47
2019-01-20T11:30:27.027Z,14.00
2019-01-20T11:32:56.155Z,13.60
2019-01-20T11:35:25.251Z,13.20
2019-01-20T11:37:54.351Z,13.57
2019-01-20T11:40:23.458Z,13.90
2019-01-20T11:42:52.582Z,13.13
2019-01-20T11:45:26.893Z,12.47
2019-01-20T11:47:56.011Z,13.77
2019-01-20T11:50:25.113Z,13.57
2019-01-20T11:52:54.405Z,12.57
2019-01-20T11:55:24.452Z,13.17
2019-01-20T12:00:39.193Z,14.30
2019-01-20T12:03:08.309Z,12.07
2019-01-20T12:05:37.410Z,12.33
2019-01-20T12:08:06.537Z,11.60
2019-01-20T12:10:35.711Z,11.53
2019-01-20T12:13:06.460Z,11.20
2019-01-20T12:15:37.196Z,11.70
2019-01-20T12:18:06.370Z,10.90
2019-01-20T12:20:35.466Z,12.03
2019-01-20T12:23:04.656Z,11.97
2019-01-20T12:25:34.784Z,11.53
2019-01-20T12:28:03.964Z,12.37
2019-01-20T12:30:38.133Z,11.63
2019-01-20T12:33:07.251Z,12.60
2019-01-20T12:35:36.367Z,16.07
2019-01-20T12:38:05.467Z,15.40
2019-01-20T12:40:42.762Z,15.80
2019-01-20T12:43:11.872Z,15.77
2019-01-20T12:45:40.978Z,16.80
2019-01-20T12:48:10.118Z,16.97
2019-01-20T12:50:39.771Z,18.13
2019-01-20T12:53:08.891Z,15.03
2019-01-20T12:55:40.861Z,17.20
2019-01-20T12:58:11.933Z,24.10
2019-01-20T13:00:41.046Z,18.10
2019-01-20T13:03:10.155Z,16.93
2019-01-20T13:05:39.295Z,14.27
2019-01-20T13:08:08.406Z,15.63
2019-01-20T13:10:37.523Z,16.73
2019-01-20T13:13:06.632Z,16.07
2019-01-20T13:15:38.325Z,16.87
2019-01-20T13:18:12.083Z,15.40
2019-01-20T13:20:42.831Z,27.90
2019-01-20T13:23:13.530Z,17.57
2019-01-20T13:25:42.643Z,17.77
2019-01-20T13:28:11.738Z,24.50
2019-01-20T13:30:40.867Z,52.13
2019-01-20T13:33:09.978Z,39.33
2019-01-20T13:35:39.089Z,26.57
2019-01-20T13:38:09.926Z,18.00
2019-01-20T13:40:53.942Z,18.70
2019-01-20T13:43:24.037Z,18.33
2019-01-20T13:45:53.150Z,19.07
2019-01-20T13:48:22.259Z,20.53
2019-01-20T13:50:51.375Z,24.40
2019-01-20T13:53:22.177Z,22.30
2019-01-20T13:55:51.397Z,21.90
2019-01-20T13:58:26.531Z,29.13
2019-01-20T14:00:55.911Z,21.33
2019-01-20T14:03:25.021Z,29.23
2019-01-20T14:05:55.780Z,22.67
2019-01-20T14:08:24.918Z,24.30
2019-01-20T14:10:54.034Z,26.53
2019-01-20T14:13:23.307Z,25.60
2019-01-20T14:15:52.618Z,25.83
2019-01-20T14:18:22.033Z,25.87
2019-01-20T14:20:51.209Z,24.90
2019-01-20T14:23:20.319Z,24.93
2019-01-20T14:25:49.430Z,25.77
2019-01-20T14:28:20.718Z,24.07
2019-01-20T14:30:50.036Z,25.13
2019-01-20T14:33:19.141Z,25.03
2019-01-20T14:35:53.369Z,25.70
2019-01-20T14:38:22.471Z,40.30
2019-01-20T14:40:53.305Z,28.60
2019-01-20T14:43:24.358Z,48.73
2019-01-20T14:46:04.439Z,33.23
2019-01-20T14:48:36.862Z,28.13
2019-01-20T14:51:09.421Z,26.10
2019-01-20T14:53:38.703Z,24.73
2019-01-20T14:56:07.916Z,29.23
2019-01-20T14:58:38.070Z,31.30
2019-01-20T15:01:07.589Z,30.47
2019-01-20T15:03:37.818Z,26.63
2019-01-20T15:06:07.041Z,25.53
2019-01-20T15:08:36.500Z,26.60
2019-01-20T15:11:05.868Z,26.70
2019-01-20T15:13:35.288Z,29.40
2019-01-20T15:16:04.708Z,31.23
2019-01-20T15:18:34.146Z,28.83
2019-01-20T15:21:03.479Z,26.83
2019-01-20T15:23:32.740Z,28.07
2019-01-20T15:26:05.007Z,27.43
2019-01-20T15:28:36.831Z,30.17
2019-01-20T15:31:06.057Z,30.50
2019-01-20T15:33:38.640Z,30.70
2019-01-20T15:36:07.814Z,33.03
2019-01-20T15:38:36.914Z,28.63
2019-01-20T15:41:06.569Z,31.47
2019-01-20T15:43:35.735Z,31.13
2019-01-20T15:46:05.042Z,31.33
2019-01-20T15:48:34.349Z,32.27
2019-01-20T15:51:03.578Z,30.93
2019-01-20T15:53:32.706Z,31.63
2019-01-20T15:56:01.907Z,32.23
2019-01-20T15:58:31.024Z,30.80
2019-01-20T16:01:00.310Z,31.50
2019-01-20T16:03:29.690Z,32.00
2019-01-20T16:05:59.873Z,34.40
2019-01-20T16:08:29.086Z,33.80
2019-01-20T16:11:01.933Z,32.33
2019-01-20T16:13:32.671Z,32.17
2019-01-20T16:16:02.346Z,32.23
2019-01-20T16:18:31.527Z,33.43
2019-01-20T16:21:00.721Z,32.43
2019-01-20T16:23:29.997Z,33.13
2019-01-20T16:25:59.147Z,33.03
2019-01-20T16:28:28.250Z,32.67
2019-01-20T16:30:57.372Z,33.13
2019-01-20T16:33:26.478Z,32.17
2019-01-20T16:35:55.601Z,33.87
2019-01-20T16:38:24.707Z,32.97
2019-01-20T16:40:53.829Z,34.60
2019-01-20T16:43:22.931Z,36.67
2019-01-20T16:45:52.068Z,36.20
2019-01-20T16:48:21.181Z,34.63
2019-01-20T16:50:50.305Z,36.50
2019-01-20T16:53:19.416Z,37.37
2019-01-20T16:55:48.535Z,34.70
2019-01-20T16:58:17.651Z,34.50
2019-01-20T17:00:46.767Z,34.63
2019-01-20T17:03:15.888Z,35.93
2019-01-20T17:05:45.014Z,36.20
2019-01-20T17:08:14.126Z,34.63
2019-01-20T17:10:43.238Z,34.73
2019-01-20T17:13:12.353Z,33.87
2019-01-20T17:15:42.128Z,33.07
2019-01-20T17:18:12.054Z,33.60
2019-01-20T17:20:41.191Z,32.40
2019-01-20T17:23:10.304Z,32.37
2019-01-20T17:25:39.404Z,35.40
2019-01-20T17:28:08.519Z,36.80
2019-01-20T17:30:38.099Z,35.67
2019-01-20T17:33:09.154Z,34.77
2019-01-20T17:35:38.262Z,41.00
2019-01-20T17:38:07.375Z,37.10
2019-01-20T17:40:36.543Z,34.63
2019-01-20T17:43:05.662Z,34.57
2019-01-20T17:45:47.583Z,33.53
2019-01-20T17:48:11.195Z,33.27
2019-01-20T17:50:41.459Z,33.43
2019-01-20T17:53:10.746Z,33.07
2019-01-20T17:55:39.842Z,34.27
2019-01-20T17:58:08.960Z,35.37
2019-01-20T18:00:42.508Z,35.97
2019-01-20T18:03:11.636Z,35.97
2019-01-20T18:05:40.735Z,35.20
2019-01-20T18:08:09.858Z,33.20
2019-01-20T18:10:38.962Z,35.93
2019-01-20T18:13:08.079Z,37.60
2019-01-20T18:15:38.949Z,37.97
2019-01-20T18:18:08.062Z,35.30
2019-01-20T18:20:37.204Z,36.97
2019-01-20T18:23:06.319Z,37.93
2019-01-20T18:25:35.506Z,36.37
2019-01-20T18:28:04.759Z,34.93
2019-01-20T18:30:33.896Z,37.17
2019-01-20T18:33:03.031Z,37.20
2019-01-20T18:35:32.307Z,34.77
2019-01-20T18:38:01.421Z,34.40
2019-01-20T18:40:30.698Z,34.73
2019-01-20T18:42:59.871Z,35.57
2019-01-20T18:45:31.026Z,36.43
2019-01-20T18:48:00.143Z,34.90
2019-01-20T18:50:31.404Z,35.43
2019-01-20T18:53:00.521Z,35.60
2019-01-20T18:55:30.603Z,37.77
2019-01-20T18:57:59.718Z,36.80
2019-01-20T19:00:37.845Z,37.53
2019-01-20T19:03:07.091Z,39.47
2019-01-20T19:05:36.200Z,41.67
2019-01-20T19:08:06.943Z,43.90
2019-01-20T19:10:36.046Z,46.17
2019-01-20T19:13:05.160Z,43.10
2019-01-20T19:15:35.174Z,40.70
2019-01-20T19:18:04.380Z,41.00
2019-01-20T19:20:33.593Z,42.10
2019-01-20T19:23:02.723Z,42.37
2019-01-20T19:25:31.839Z,40.83
2019-01-20T19:28:00.944Z,36.33
2019-01-20T19:30:32.319Z,39.37
2019-01-20T19:33:01.426Z,37.07
2019-01-20T19:35:30.595Z,35.70
2019-01-20T19:37:59.697Z,37.67
2019-01-20T19:40:28.826Z,36.47
2019-01-20T19:42:57.943Z,37.37
2019-01-20T19:45:27.068Z,37.63
2019-01-20T19:47:57.117Z,40.33
2019-01-20T19:50:26.818Z,41.70
2019-01-20T19:52:55.927Z,42.33
2019-01-20T19:55:44.495Z,41.23
2019-01-20T19:58:13.815Z,39.93
2019-01-20T20:00:42.968Z,38.60
2019-01-20T20:03:12.085Z,40.40
2019-01-20T20:05:41.213Z,39.30
2019-01-20T20:08:10.307Z,40.73
2019-01-20T20:10:39.468Z,43.07
2019-01-20T20:13:08.676Z,39.40
2019-01-20T20:15:38.824Z,42.23
2019-01-20T20:18:07.929Z,44.73
2019-01-20T20:20:37.062Z,44.13
2019-01-20T20:23:06.167Z,42.13
2019-01-20T20:25:35.309Z,40.47
2019-01-20T20:28:04.399Z,39.37
2019-01-20T20:30:35.504Z,38.93
2019-01-20T20:33:04.681Z,38.93
2019-01-20T20:35:33.805Z,37.83
2019-01-20T20:38:02.920Z,39.40
2019-01-20T20:40:32.040Z,41.60
2019-01-20T20:43:01.160Z,37.23
2019-01-20T20:45:30.399Z,35.47
2019-01-20T20:47:59.498Z,37.17
2019-01-20T20:50:28.615Z,34.40
2019-01-20T20:52:58.698Z,34.10
2019-01-20T20:55:27.885Z,35.50
2019-01-20T20:57:56.991Z,34.37
2019-01-20T21:00:28.670Z,34.47
2019-01-20T21:02:58.994Z,36.07
2019-01-20T21:05:28.104Z,35.70
2019-01-20T21:07:57.285Z,36.17
2019-01-20T21:10:26.394Z,33.20
2019-01-20T21:12:55.495Z,32.90
2019-01-20T21:15:24.620Z,33.67
2019-01-20T21:17:53.787Z,34.97
2019-01-20T21:20:24.055Z,33.63
2019-01-20T21:22:53.167Z,34.57
2019-01-20T21:25:22.305Z,32.13
2019-01-20T21:27:51.418Z,33.07
2019-01-20T21:30:25.895Z,33.63
2019-01-20T21:32:55.006Z,33.47
2019-01-20T21:35:24.274Z,36.40
2019-01-20T21:37:53.565Z,35.37
2019-01-20T21:40:22.713Z,38.00
2019-01-20T21:42:52.779Z,37.90
2019-01-20T21:45:22.843Z,35.90
2019-01-20T21:47:51.961Z,35.97
2019-01-20T21:50:23.867Z,35.47
2019-01-20T21:52:54.577Z,36.40
2019-01-20T21:55:23.692Z,35.70
2019-01-20T21:57:53.849Z,36.00
2019-01-20T22:00:25.258Z,34.60
2019-01-20T22:02:54.373Z,36.90
2019-01-20T22:05:23.482Z,36.67
2019-01-20T22:07:52.603Z,40.13
2019-01-20T22:10:23.819Z,37.63
2019-01-20T22:12:52.939Z,36.40
2019-01-20T22:15:22.050Z,35.00
2019-01-20T22:17:51.159Z,39.43
2019-01-20T22:20:22.004Z,40.93
2019-01-20T22:22:51.758Z,40.03
2019-01-20T22:25:20.896Z,41.47
2019-01-20T22:27:50.021Z,42.20
2019-01-20T22:30:23.935Z,38.97
2019-01-20T22:32:53.065Z,42.03
2019-01-20T22:35:22.171Z,39.67
2019-01-20T22:37:51.287Z,42.57
2019-01-20T22:40:20.386Z,43.00
2019-01-20T22:42:49.531Z,39.73
2019-01-20T22:45:25.408Z,40.43
2019-01-20T22:47:54.515Z,40.37
2019-01-20T22:50:24.798Z,39.63
2019-01-20T22:52:56.464Z,40.23
2019-01-20T22:55:25.815Z,38.93
2019-01-20T22:57:54.940Z,37.60
2019-01-20T23:00:48.861Z,37.40
2019-01-20T23:03:18.783Z,37.70
2019-01-20T23:05:48.429Z,38.23
2019-01-20T23:08:17.583Z,36.90
2019-01-20T23:10:46.735Z,37.30
2019-01-20T23:13:15.942Z,37.80
2019-01-20T23:15:45.157Z,36.27
2019-01-20T23:18:14.290Z,37.53
2019-01-20T23:20:43.407Z,38.93
2019-01-20T23:23:12.534Z,38.07
2019-01-20T23:25:41.622Z,37.03
2019-01-20T23:28:10.752Z,38.03
2019-01-20T23:30:39.879Z,39.43
2019-01-20T23:33:09.006Z,37.13
2019-01-20T23:35:39.113Z,40.47
2019-01-20T23:38:08.342Z,37.70
2019-01-20T23:40:37.530Z,39.20
2019-01-20T23:43:06.661Z,37.57
2019-01-20T23:45:35.771Z,38.80
2019-01-20T23:48:04.886Z,37.17
2019-01-20T23:50:33.992Z,38.10
2019-01-20T23:53:03.201Z,39.00
2019-01-20T23:55:32.555Z,37.17
2019-01-20T23:58:01.709Z,37.13
